sensor_id;sensor_type;location;lat;lon;timestamp;temperature;humidity
51253;DHT22;38936;47.808;19.936;2022-08-21T00:01:48;21.20;99.90
51253;DHT22;38936;47.808;19.936;2022-08-21T00:04:14;21.20;99.90
51253;DHT22;38936;47.808;19.936;2022-08-21T00:06:40;21.20;99.90
51253;DHT22;38936;47.808;19.936;2022-08-21T00:09:07;21.20;99.90
51253;DHT22;38936;47.808;19.936;2022-08-21T00:11:35;21.20;99.90
51253;DHT22;38936;47.808;19.936;2022-08-21T00:14:01;21.20;99.90
51253;DHT22;38936;47.808;19.936;2022-08-21T00:16:26;21.20;99.90
51253;DHT22;38936;47.808;19.936;2022-08-21T00:18:52;21.20;99.90
51253;DHT22;38936;47.808;19.936;2022-08-21T00:21:18;21.30;99.90
51253;DHT22;38936;47.808;19.936;2022-08-21T00:23:43;21.30;99.90
51253;DHT22;38936;47.808;19.936;2022-08-21T00:26:09;21.30;99.90
51253;DHT22;38936;47.808;19.936;2022-08-21T00:28:35;21.30;99.90
51253;DHT22;38936;47.808;19.936;2022-08-21T00:31:01;21.30;99.90
51253;DHT22;38936;47.808;19.936;2022-08-21T00:33:29;21.30;99.90
51253;DHT22;38936;47.808;19.936;2022-08-21T00:35:55;21.20;99.90
51253;DHT22;38936;47.808;19.936;2022-08-21T00:38:21;21.20;99.90
51253;DHT22;38936;47.808;19.936;2022-08-21T00:40:58;21.20;99.90
51253;DHT22;38936;47.808;19.936;2022-08-21T00:43:37;21.30;99.90
51253;DHT22;38936;47.808;19.936;2022-08-21T00:46:04;21.20;99.90
51253;DHT22;38936;47.808;19.936;2022-08-21T00:48:30;21.20;99.90
51253;DHT22;38936;47.808;19.936;2022-08-21T00:51:08;21.10;99.90
51253;DHT22;38936;47.808;19.936;2022-08-21T00:53:38;21.20;99.90
51253;DHT22;38936;47.808;19.936;2022-08-21T00:56:05;21.20;99.90
51253;DHT22;38936;47.808;19.936;2022-08-21T00:58:33;21.20;99.90
51253;DHT22;38936;47.808;19.936;2022-08-21T01:01:03;21.20;99.90
51253;DHT22;38936;47.808;19.936;2022-08-21T01:03:29;21.10;99.90
51253;DHT22;38936;47.808;19.936;2022-08-21T01:05:55;21.10;99.90
51253;DHT22;38936;47.808;19.936;2022-08-21T01:08:22;21.10;99.90
51253;DHT22;38936;47.808;19.936;2022-08-21T01:10:49;21.10;99.90
51253;DHT22;38936;47.808;19.936;2022-08-21T01:13:17;21.00;99.90
51253;DHT22;38936;47.808;19.936;2022-08-21T01:15:46;21.00;99.90
51253;DHT22;38936;47.808;19.936;2022-08-21T01:18:14;20.90;99.90
51253;DHT22;38936;47.808;19.936;2022-08-21T01:23:11;20.90;99.90
51253;DHT22;38936;47.808;19.936;2022-08-21T01:25:37;20.80;99.90
51253;DHT22;38936;47.808;19.936;2022-08-21T01:28:09;20.80;99.90
51253;DHT22;38936;47.808;19.936;2022-08-21T01:30:36;20.70;99.90
51253;DHT22;38936;47.808;19.936;2022-08-21T01:33:03;20.70;99.90
51253;DHT22;38936;47.808;19.936;2022-08-21T01:35:29;20.60;99.90
51253;DHT22;38936;47.808;19.936;2022-08-21T01:37:55;20.60;99.90
51253;DHT22;38936;47.808;19.936;2022-08-21T01:40:20;20.60;99.90
51253;DHT22;38936;47.808;19.936;2022-08-21T01:42:47;20.50;99.90
51253;DHT22;38936;47.808;19.936;2022-08-21T01:45:14;20.50;99.90
51253;DHT22;38936;47.808;19.936;2022-08-21T01:47:42;20.50;99.90
51253;DHT22;38936;47.808;19.936;2022-08-21T01:50:11;20.40;99.90
51253;DHT22;38936;47.808;19.936;2022-08-21T01:52:37;20.40;99.90
51253;DHT22;38936;47.808;19.936;2022-08-21T01:55:04;20.50;99.90
51253;DHT22;38936;47.808;19.936;2022-08-21T01:57:30;20.50;99.90
51253;DHT22;38936;47.808;19.936;2022-08-21T01:59:58;20.40;99.90
51253;DHT22;38936;47.808;19.936;2022-08-21T02:02:24;20.40;99.90
51253;DHT22;38936;47.808;19.936;2022-08-21T02:04:49;20.40;99.90
51253;DHT22;38936;47.808;19.936;2022-08-21T02:07:15;20.40;99.90
51253;DHT22;38936;47.808;19.936;2022-08-21T02:09:41;20.40;99.90
51253;DHT22;38936;47.808;19.936;2022-08-21T02:12:09;20.40;99.90
51253;DHT22;38936;47.808;19.936;2022-08-21T02:14:35;20.40;99.90
51253;DHT22;38936;47.808;19.936;2022-08-21T02:17:01;20.50;99.90
51253;DHT22;38936;47.808;19.936;2022-08-21T02:19:27;20.40;99.90
51253;DHT22;38936;47.808;19.936;2022-08-21T02:21:53;20.50;99.90
51253;DHT22;38936;47.808;19.936;2022-08-21T02:24:18;20.50;99.90
51253;DHT22;38936;47.808;19.936;2022-08-21T02:26:44;20.60;99.90
51253;DHT22;38936;47.808;19.936;2022-08-21T02:29:09;20.50;99.90
51253;DHT22;38936;47.808;19.936;2022-08-21T02:31:35;20.50;99.90
51253;DHT22;38936;47.808;19.936;2022-08-21T02:34:01;20.60;99.90
51253;DHT22;38936;47.808;19.936;2022-08-21T02:36:27;20.60;99.90
51253;DHT22;38936;47.808;19.936;2022-08-21T02:38:52;20.60;99.90
51253;DHT22;38936;47.808;19.936;2022-08-21T02:41:20;20.60;99.90
51253;DHT22;38936;47.808;19.936;2022-08-21T02:43:46;20.60;99.90
51253;DHT22;38936;47.808;19.936;2022-08-21T02:46:16;20.60;99.90
51253;DHT22;38936;47.808;19.936;2022-08-21T02:48:42;20.60;99.90
51253;DHT22;38936;47.808;19.936;2022-08-21T02:51:13;20.70;99.90
51253;DHT22;38936;47.808;19.936;2022-08-21T02:53:40;20.70;99.90
51253;DHT22;38936;47.808;19.936;2022-08-21T02:56:09;20.60;99.90
51253;DHT22;38936;47.808;19.936;2022-08-21T02:58:39;20.60;99.90
51253;DHT22;38936;47.808;19.936;2022-08-21T03:01:06;20.60;99.90
51253;DHT22;38936;47.808;19.936;2022-08-21T03:03:35;20.60;99.90
51253;DHT22;38936;47.808;19.936;2022-08-21T03:06:02;20.60;99.90
51253;DHT22;38936;47.808;19.936;2022-08-21T03:08:27;20.50;99.90
51253;DHT22;38936;47.808;19.936;2022-08-21T03:10:53;20.50;99.90
51253;DHT22;38936;47.808;19.936;2022-08-21T03:13:19;20.50;99.90
51253;DHT22;38936;47.808;19.936;2022-08-21T03:15:46;20.50;99.90
51253;DHT22;38936;47.808;19.936;2022-08-21T03:18:13;20.50;99.90
51253;DHT22;38936;47.808;19.936;2022-08-21T03:20:41;20.50;99.90
51253;DHT22;38936;47.808;19.936;2022-08-21T03:23:07;20.50;99.90
51253;DHT22;38936;47.808;19.936;2022-08-21T03:25:33;20.50;99.90
51253;DHT22;38936;47.808;19.936;2022-08-21T03:28:00;20.50;99.90
51253;DHT22;38936;47.808;19.936;2022-08-21T03:30:26;20.50;99.90
51253;DHT22;38936;47.808;19.936;2022-08-21T03:32:51;20.50;99.90
51253;DHT22;38936;47.808;19.936;2022-08-21T03:35:18;20.50;99.90
51253;DHT22;38936;47.808;19.936;2022-08-21T03:37:45;20.60;99.90
51253;DHT22;38936;47.808;19.936;2022-08-21T03:40:12;20.50;99.90
51253;DHT22;38936;47.808;19.936;2022-08-21T03:42:38;20.50;99.90
51253;DHT22;38936;47.808;19.936;2022-08-21T03:45:05;20.50;99.90
51253;DHT22;38936;47.808;19.936;2022-08-21T03:47:31;20.50;99.90
51253;DHT22;38936;47.808;19.936;2022-08-21T03:49:57;20.50;99.90
51253;DHT22;38936;47.808;19.936;2022-08-21T03:52:23;20.50;99.90
51253;DHT22;38936;47.808;19.936;2022-08-21T03:54:49;20.50;99.90
51253;DHT22;38936;47.808;19.936;2022-08-21T03:57:16;20.40;99.90
51253;DHT22;38936;47.808;19.936;2022-08-21T03:59:42;20.40;99.90
51253;DHT22;38936;47.808;19.936;2022-08-21T04:02:09;20.40;99.90
51253;DHT22;38936;47.808;19.936;2022-08-21T04:04:36;20.40;99.90
51253;DHT22;38936;47.808;19.936;2022-08-21T04:07:02;20.40;99.90
51253;DHT22;38936;47.808;19.936;2022-08-21T04:09:28;20.40;99.90
51253;DHT22;38936;47.808;19.936;2022-08-21T04:11:56;20.50;99.90
51253;DHT22;38936;47.808;19.936;2022-08-21T04:14:21;20.40;99.90
51253;DHT22;38936;47.808;19.936;2022-08-21T04:16:47;20.40;99.90
51253;DHT22;38936;47.808;19.936;2022-08-21T04:19:13;20.50;99.90
51253;DHT22;38936;47.808;19.936;2022-08-21T04:21:40;20.40;99.90
51253;DHT22;38936;47.808;19.936;2022-08-21T04:24:07;20.40;99.90
51253;DHT22;38936;47.808;19.936;2022-08-21T04:26:34;20.40;99.90
51253;DHT22;38936;47.808;19.936;2022-08-21T04:29:00;20.40;99.90
51253;DHT22;38936;47.808;19.936;2022-08-21T04:31:26;20.30;99.90
51253;DHT22;38936;47.808;19.936;2022-08-21T04:33:51;20.30;99.90
51253;DHT22;38936;47.808;19.936;2022-08-21T04:36:17;20.30;99.90
51253;DHT22;38936;47.808;19.936;2022-08-21T04:38:43;20.30;99.90
51253;DHT22;38936;47.808;19.936;2022-08-21T04:41:09;20.30;99.90
51253;DHT22;38936;47.808;19.936;2022-08-21T04:43:35;20.30;99.90
51253;DHT22;38936;47.808;19.936;2022-08-21T04:46:00;20.30;99.90
51253;DHT22;38936;47.808;19.936;2022-08-21T04:48:27;20.40;99.90
51253;DHT22;38936;47.808;19.936;2022-08-21T04:51:19;20.40;99.90
51253;DHT22;38936;47.808;19.936;2022-08-21T04:53:55;20.30;99.90
51253;DHT22;38936;47.808;19.936;2022-08-21T04:58:51;20.30;99.90
51253;DHT22;38936;47.808;19.936;2022-08-21T05:01:20;20.30;99.90
51253;DHT22;38936;47.808;19.936;2022-08-21T05:03:49;20.40;99.90
51253;DHT22;38936;47.808;19.936;2022-08-21T05:06:16;20.40;99.90
51253;DHT22;38936;47.808;19.936;2022-08-21T05:08:44;20.40;99.90
51253;DHT22;38936;47.808;19.936;2022-08-21T05:11:11;20.40;99.90
51253;DHT22;38936;47.808;19.936;2022-08-21T05:13:36;20.50;99.90
51253;DHT22;38936;47.808;19.936;2022-08-21T05:16:02;20.50;99.90
51253;DHT22;38936;47.808;19.936;2022-08-21T05:18:28;20.50;99.90
51253;DHT22;38936;47.808;19.936;2022-08-21T05:20:54;20.50;99.90
51253;DHT22;38936;47.808;19.936;2022-08-21T05:23:20;20.60;99.90
51253;DHT22;38936;47.808;19.936;2022-08-21T05:25:45;20.60;99.90
51253;DHT22;38936;47.808;19.936;2022-08-21T05:28:11;20.60;99.90
51253;DHT22;38936;47.808;19.936;2022-08-21T05:30:38;20.60;99.90
51253;DHT22;38936;47.808;19.936;2022-08-21T05:33:05;20.60;99.90
51253;DHT22;38936;47.808;19.936;2022-08-21T05:35:31;20.70;99.90
51253;DHT22;38936;47.808;19.936;2022-08-21T05:37:58;20.70;99.90
51253;DHT22;38936;47.808;19.936;2022-08-21T05:40:26;20.80;99.90
51253;DHT22;38936;47.808;19.936;2022-08-21T05:42:53;20.90;99.90
51253;DHT22;38936;47.808;19.936;2022-08-21T05:45:19;20.90;99.90
51253;DHT22;38936;47.808;19.936;2022-08-21T05:47:45;21.00;99.90
51253;DHT22;38936;47.808;19.936;2022-08-21T05:50:11;21.00;99.90
51253;DHT22;38936;47.808;19.936;2022-08-21T05:52:36;21.00;99.90
51253;DHT22;38936;47.808;19.936;2022-08-21T05:55:03;21.10;99.90
51253;DHT22;38936;47.808;19.936;2022-08-21T05:57:28;21.10;99.90
51253;DHT22;38936;47.808;19.936;2022-08-21T05:59:54;21.10;99.90
51253;DHT22;38936;47.808;19.936;2022-08-21T06:02:20;21.20;99.90
51253;DHT22;38936;47.808;19.936;2022-08-21T06:04:47;21.30;99.90
51253;DHT22;38936;47.808;19.936;2022-08-21T06:07:13;21.30;99.90
51253;DHT22;38936;47.808;19.936;2022-08-21T06:09:39;21.40;99.90
51253;DHT22;38936;47.808;19.936;2022-08-21T06:12:10;21.50;99.90
51253;DHT22;38936;47.808;19.936;2022-08-21T06:14:38;21.50;99.90
51253;DHT22;38936;47.808;19.936;2022-08-21T06:17:05;21.60;99.90
51253;DHT22;38936;47.808;19.936;2022-08-21T06:19:32;21.60;99.90
51253;DHT22;38936;47.808;19.936;2022-08-21T06:21:58;21.70;99.90
51253;DHT22;38936;47.808;19.936;2022-08-21T06:24:24;21.60;99.90
51253;DHT22;38936;47.808;19.936;2022-08-21T06:26:50;21.60;99.90
51253;DHT22;38936;47.808;19.936;2022-08-21T06:29:16;21.60;99.90
51253;DHT22;38936;47.808;19.936;2022-08-21T06:31:43;21.60;99.90
51253;DHT22;38936;47.808;19.936;2022-08-21T06:34:10;21.60;99.90
51253;DHT22;38936;47.808;19.936;2022-08-21T06:36:36;21.60;99.90
51253;DHT22;38936;47.808;19.936;2022-08-21T06:39:02;21.60;99.90
51253;DHT22;38936;47.808;19.936;2022-08-21T06:41:28;21.60;99.90
51253;DHT22;38936;47.808;19.936;2022-08-21T06:43:55;21.60;99.90
51253;DHT22;38936;47.808;19.936;2022-08-21T06:46:21;21.60;99.90
51253;DHT22;38936;47.808;19.936;2022-08-21T06:48:46;21.60;99.90
51253;DHT22;38936;47.808;19.936;2022-08-21T06:51:12;21.60;99.90
51253;DHT22;38936;47.808;19.936;2022-08-21T06:53:38;21.60;99.90
51253;DHT22;38936;47.808;19.936;2022-08-21T06:56:03;21.70;99.90
51253;DHT22;38936;47.808;19.936;2022-08-21T06:58:29;21.70;99.90
51253;DHT22;38936;47.808;19.936;2022-08-21T07:00:56;21.80;99.90
51253;DHT22;38936;47.808;19.936;2022-08-21T07:03:23;21.90;99.90
51253;DHT22;38936;47.808;19.936;2022-08-21T07:05:49;22.00;99.90
51253;DHT22;38936;47.808;19.936;2022-08-21T07:08:15;22.10;99.90
51253;DHT22;38936;47.808;19.936;2022-08-21T07:10:42;22.20;99.90
51253;DHT22;38936;47.808;19.936;2022-08-21T07:13:07;22.30;99.90
51253;DHT22;38936;47.808;19.936;2022-08-21T07:15:33;22.40;99.90
51253;DHT22;38936;47.808;19.936;2022-08-21T07:17:59;22.50;99.90
51253;DHT22;38936;47.808;19.936;2022-08-21T07:20:30;22.60;99.90
51253;DHT22;38936;47.808;19.936;2022-08-21T07:22:59;22.70;99.90
51253;DHT22;38936;47.808;19.936;2022-08-21T07:25:25;22.60;99.90
51253;DHT22;38936;47.808;19.936;2022-08-21T07:27:51;22.60;99.90
51253;DHT22;38936;47.808;19.936;2022-08-21T07:30:17;22.60;99.90
51253;DHT22;38936;47.808;19.936;2022-08-21T07:32:42;22.60;99.90
51253;DHT22;38936;47.808;19.936;2022-08-21T07:35:09;22.60;99.90
51253;DHT22;38936;47.808;19.936;2022-08-21T07:37:34;22.60;99.90
51253;DHT22;38936;47.808;19.936;2022-08-21T07:40:00;22.60;99.90
51253;DHT22;38936;47.808;19.936;2022-08-21T07:42:26;22.60;99.90
51253;DHT22;38936;47.808;19.936;2022-08-21T07:44:51;22.60;99.90
51253;DHT22;38936;47.808;19.936;2022-08-21T07:47:17;22.60;99.90
51253;DHT22;38936;47.808;19.936;2022-08-21T07:49:43;22.60;99.90
51253;DHT22;38936;47.808;19.936;2022-08-21T07:52:08;22.60;99.90
51253;DHT22;38936;47.808;19.936;2022-08-21T07:54:34;22.70;99.90
51253;DHT22;38936;47.808;19.936;2022-08-21T07:57:01;22.70;99.90
51253;DHT22;38936;47.808;19.936;2022-08-21T07:59:27;22.70;99.90
51253;DHT22;38936;47.808;19.936;2022-08-21T08:01:52;22.70;99.90
51253;DHT22;38936;47.808;19.936;2022-08-21T08:04:18;22.70;99.90
51253;DHT22;38936;47.808;19.936;2022-08-21T08:06:44;22.70;99.90
51253;DHT22;38936;47.808;19.936;2022-08-21T08:09:09;22.70;99.90
51253;DHT22;38936;47.808;19.936;2022-08-21T08:11:37;22.80;99.90
51253;DHT22;38936;47.808;19.936;2022-08-21T08:14:03;22.70;99.90
51253;DHT22;38936;47.808;19.936;2022-08-21T08:16:29;22.80;99.90
51253;DHT22;38936;47.808;19.936;2022-08-21T08:18:55;22.80;99.90
51253;DHT22;38936;47.808;19.936;2022-08-21T08:21:21;22.80;99.90
51253;DHT22;38936;47.808;19.936;2022-08-21T08:23:47;22.90;99.90
51253;DHT22;38936;47.808;19.936;2022-08-21T08:26:12;22.90;99.90
51253;DHT22;38936;47.808;19.936;2022-08-21T08:28:38;23.00;99.90
51253;DHT22;38936;47.808;19.936;2022-08-21T08:31:04;23.10;99.90
51253;DHT22;38936;47.808;19.936;2022-08-21T08:33:30;23.20;99.90
51253;DHT22;38936;47.808;19.936;2022-08-21T08:35:55;23.30;99.90
51253;DHT22;38936;47.808;19.936;2022-08-21T08:38:23;23.40;99.90
51253;DHT22;38936;47.808;19.936;2022-08-21T08:41:12;23.50;99.90
51253;DHT22;38936;47.808;19.936;2022-08-21T08:43:40;23.50;99.90
51253;DHT22;38936;47.808;19.936;2022-08-21T08:46:12;23.60;99.90
51253;DHT22;38936;47.808;19.936;2022-08-21T08:51:42;23.80;99.90
51253;DHT22;38936;47.808;19.936;2022-08-21T08:54:16;23.80;99.90
51253;DHT22;38936;47.808;19.936;2022-08-21T08:56:43;24.00;99.90
51253;DHT22;38936;47.808;19.936;2022-08-21T08:59:19;24.10;99.90
51253;DHT22;38936;47.808;19.936;2022-08-21T09:01:46;24.20;99.90
51253;DHT22;38936;47.808;19.936;2022-08-21T09:04:12;24.30;99.90
51253;DHT22;38936;47.808;19.936;2022-08-21T09:06:49;24.40;99.90
51253;DHT22;38936;47.808;19.936;2022-08-21T09:15:29;24.70;99.90
51253;DHT22;38936;47.808;19.936;2022-08-21T09:28:15;24.90;99.90
51253;DHT22;38936;47.808;19.936;2022-08-21T09:30:41;24.90;99.90
51253;DHT22;38936;47.808;19.936;2022-08-21T09:33:10;24.90;99.90
51253;DHT22;38936;47.808;19.936;2022-08-21T09:35:47;24.80;99.90
51253;DHT22;38936;47.808;19.936;2022-08-21T09:38:25;24.90;99.90
51253;DHT22;38936;47.808;19.936;2022-08-21T09:40:57;25.00;99.90
51253;DHT22;38936;47.808;19.936;2022-08-21T09:43:24;25.10;99.90
51253;DHT22;38936;47.808;19.936;2022-08-21T09:46:20;25.20;99.90
51253;DHT22;38936;47.808;19.936;2022-08-21T09:48:49;25.30;99.90
51253;DHT22;38936;47.808;19.936;2022-08-21T09:51:22;25.20;99.90
51253;DHT22;38936;47.808;19.936;2022-08-21T09:53:53;25.20;99.90
51253;DHT22;38936;47.808;19.936;2022-08-21T09:59:18;25.10;99.90
51253;DHT22;38936;47.808;19.936;2022-08-21T10:01:49;24.90;99.90
51253;DHT22;38936;47.808;19.936;2022-08-21T10:04:20;24.90;99.90
51253;DHT22;38936;47.808;19.936;2022-08-21T10:06:47;25.00;99.90
51253;DHT22;38936;47.808;19.936;2022-08-21T10:09:15;25.10;99.90
51253;DHT22;38936;47.808;19.936;2022-08-21T10:11:58;25.20;99.90
51253;DHT22;38936;47.808;19.936;2022-08-21T10:17:15;25.50;99.90
51253;DHT22;38936;47.808;19.936;2022-08-21T10:20:03;25.70;99.90
51253;DHT22;38936;47.808;19.936;2022-08-21T10:25:18;25.90;99.90
51253;DHT22;38936;47.808;19.936;2022-08-21T10:30:27;26.20;99.90
51253;DHT22;38936;47.808;19.936;2022-08-21T10:38:44;26.40;99.90
51253;DHT22;38936;47.808;19.936;2022-08-21T10:44:34;26.30;99.90
51253;DHT22;38936;47.808;19.936;2022-08-21T10:50:10;26.10;99.90
51253;DHT22;38936;47.808;19.936;2022-08-21T10:57:58;26.20;99.90
51253;DHT22;38936;47.808;19.936;2022-08-21T11:00:30;26.30;99.90
51253;DHT22;38936;47.808;19.936;2022-08-21T11:03:17;26.40;99.90
51253;DHT22;38936;47.808;19.936;2022-08-21T11:05:53;26.40;99.90
51253;DHT22;38936;47.808;19.936;2022-08-21T11:08:33;26.40;99.90
51253;DHT22;38936;47.808;19.936;2022-08-21T11:11:14;26.20;99.90
51253;DHT22;38936;47.808;19.936;2022-08-21T11:16:28;26.20;99.90
51253;DHT22;38936;47.808;19.936;2022-08-21T11:19:17;26.20;99.90
51253;DHT22;38936;47.808;19.936;2022-08-21T11:24:30;26.30;99.90
51253;DHT22;38936;47.808;19.936;2022-08-21T11:27:04;26.40;99.90
51253;DHT22;38936;47.808;19.936;2022-08-21T11:29:37;26.60;99.90
51253;DHT22;38936;47.808;19.936;2022-08-21T11:32:31;26.70;99.90
51253;DHT22;38936;47.808;19.936;2022-08-21T11:43:41;26.80;99.90
51253;DHT22;38936;47.808;19.936;2022-08-21T11:49:04;27.10;99.90
51253;DHT22;38936;47.808;19.936;2022-08-21T11:54:11;27.20;99.90
51253;DHT22;38936;47.808;19.936;2022-08-21T11:56:46;27.20;99.90
51253;DHT22;38936;47.808;19.936;2022-08-21T11:59:41;27.10;99.90
51253;DHT22;38936;47.808;19.936;2022-08-21T12:02:13;27.20;99.90
51253;DHT22;38936;47.808;19.936;2022-08-21T12:04:53;27.20;99.90
51253;DHT22;38936;47.808;19.936;2022-08-21T12:07:33;27.10;99.90
51253;DHT22;38936;47.808;19.936;2022-08-21T12:09:59;27.00;99.90
51253;DHT22;38936;47.808;19.936;2022-08-21T12:12:31;26.80;99.90
51253;DHT22;38936;47.808;19.936;2022-08-21T12:17:54;26.70;99.90
51253;DHT22;38936;47.808;19.936;2022-08-21T12:25:38;26.60;99.90
51253;DHT22;38936;47.808;19.936;2022-08-21T12:28:21;26.70;99.90
51253;DHT22;38936;47.808;19.936;2022-08-21T12:30:48;26.80;99.90
51253;DHT22;38936;47.808;19.936;2022-08-21T12:33:33;26.80;99.90
51253;DHT22;38936;47.808;19.936;2022-08-21T12:36:06;26.90;99.90
51253;DHT22;38936;47.808;19.936;2022-08-21T12:38:57;26.90;99.90
51253;DHT22;38936;47.808;19.936;2022-08-21T12:41:44;26.90;99.90
51253;DHT22;38936;47.808;19.936;2022-08-21T12:44:15;26.70;99.90
51253;DHT22;38936;47.808;19.936;2022-08-21T12:47:02;26.80;99.90
51253;DHT22;38936;47.808;19.936;2022-08-21T12:49:37;26.70;99.90
51253;DHT22;38936;47.808;19.936;2022-08-21T12:52:28;26.80;99.90
51253;DHT22;38936;47.808;19.936;2022-08-21T12:54:55;26.80;99.90
51253;DHT22;38936;47.808;19.936;2022-08-21T12:57:23;26.80;99.90
51253;DHT22;38936;47.808;19.936;2022-08-21T12:59:55;26.80;99.90
51253;DHT22;38936;47.808;19.936;2022-08-21T13:02:43;26.80;99.90
51253;DHT22;38936;47.808;19.936;2022-08-21T13:05:15;26.80;99.90
51253;DHT22;38936;47.808;19.936;2022-08-21T13:07:46;26.80;99.90
51253;DHT22;38936;47.808;19.936;2022-08-21T13:10:20;26.90;99.90
51253;DHT22;38936;47.808;19.936;2022-08-21T13:12:47;27.00;99.90
51253;DHT22;38936;47.808;19.936;2022-08-21T13:15:14;27.10;99.90
51253;DHT22;38936;47.808;19.936;2022-08-21T13:17:44;27.10;99.90
51253;DHT22;38936;47.808;19.936;2022-08-21T13:20:25;27.30;99.90
51253;DHT22;38936;47.808;19.936;2022-08-21T13:22:52;27.40;99.80
51253;DHT22;38936;47.808;19.936;2022-08-21T13:25:21;27.30;99.40
51253;DHT22;38936;47.808;19.936;2022-08-21T13:28:08;27.30;99.80
51253;DHT22;38936;47.808;19.936;2022-08-21T13:30:39;27.30;99.50
51253;DHT22;38936;47.808;19.936;2022-08-21T13:33:07;27.30;99.60
51253;DHT22;38936;47.808;19.936;2022-08-21T13:35:58;27.20;99.70
51253;DHT22;38936;47.808;19.936;2022-08-21T13:38:33;27.10;99.90
51253;DHT22;38936;47.808;19.936;2022-08-21T13:41:49;26.90;99.90
51253;DHT22;38936;47.808;19.936;2022-08-21T13:43:55;26.80;99.90
51253;DHT22;38936;47.808;19.936;2022-08-21T13:46:22;26.60;99.90
51253;DHT22;38936;47.808;19.936;2022-08-21T13:48:49;26.50;99.90
51253;DHT22;38936;47.808;19.936;2022-08-21T13:51:15;26.40;99.90
51253;DHT22;38936;47.808;19.936;2022-08-21T13:56:08;26.30;99.90
51253;DHT22;38936;47.808;19.936;2022-08-21T13:58:43;26.30;99.90
51253;DHT22;38936;47.808;19.936;2022-08-21T14:01:51;26.20;99.90
51253;DHT22;38936;47.808;19.936;2022-08-21T14:04:48;26.00;99.90
51253;DHT22;38936;47.808;19.936;2022-08-21T14:06:52;25.90;99.90
51253;DHT22;38936;47.808;19.936;2022-08-21T14:09:34;25.80;99.90
51253;DHT22;38936;47.808;19.936;2022-08-21T14:12:35;25.80;99.90
51253;DHT22;38936;47.808;19.936;2022-08-21T14:14:57;25.80;99.90
51253;DHT22;38936;47.808;19.936;2022-08-21T14:17:33;25.80;99.90
51253;DHT22;38936;47.808;19.936;2022-08-21T14:19:58;25.80;99.90
51253;DHT22;38936;47.808;19.936;2022-08-21T14:25:04;25.90;99.90
51253;DHT22;38936;47.808;19.936;2022-08-21T14:27:33;25.80;99.90
51253;DHT22;38936;47.808;19.936;2022-08-21T14:32:52;25.80;99.90
51253;DHT22;38936;47.808;19.936;2022-08-21T14:35:19;25.80;99.90
51253;DHT22;38936;47.808;19.936;2022-08-21T14:37:46;25.80;99.90
51253;DHT22;38936;47.808;19.936;2022-08-21T14:40:13;25.80;99.90
51253;DHT22;38936;47.808;19.936;2022-08-21T14:42:41;25.80;99.90
51253;DHT22;38936;47.808;19.936;2022-08-21T14:45:20;25.80;99.90
51253;DHT22;38936;47.808;19.936;2022-08-21T14:47:47;25.80;99.90
51253;DHT22;38936;47.808;19.936;2022-08-21T14:50:13;25.80;99.90
51253;DHT22;38936;47.808;19.936;2022-08-21T14:52:39;25.80;99.90
51253;DHT22;38936;47.808;19.936;2022-08-21T14:55:07;25.80;99.90
51253;DHT22;38936;47.808;19.936;2022-08-21T14:57:40;25.80;99.90
51253;DHT22;38936;47.808;19.936;2022-08-21T15:00:06;25.90;99.90
51253;DHT22;38936;47.808;19.936;2022-08-21T15:02:33;25.90;99.90
51253;DHT22;38936;47.808;19.936;2022-08-21T15:04:59;25.90;99.90
51253;DHT22;38936;47.808;19.936;2022-08-21T15:07:24;25.90;99.90
51253;DHT22;38936;47.808;19.936;2022-08-21T15:09:50;25.90;99.90
51253;DHT22;38936;47.808;19.936;2022-08-21T15:12:16;25.90;99.90
51253;DHT22;38936;47.808;19.936;2022-08-21T15:14:41;25.90;99.90
51253;DHT22;38936;47.808;19.936;2022-08-21T15:17:09;25.80;99.90
51253;DHT22;38936;47.808;19.936;2022-08-21T15:19:36;25.80;99.90
51253;DHT22;38936;47.808;19.936;2022-08-21T15:22:02;25.80;99.90
51253;DHT22;38936;47.808;19.936;2022-08-21T15:24:28;25.80;99.90
51253;DHT22;38936;47.808;19.936;2022-08-21T15:26:55;25.80;99.90
51253;DHT22;38936;47.808;19.936;2022-08-21T15:29:22;25.70;99.90
51253;DHT22;38936;47.808;19.936;2022-08-21T15:32:02;25.70;99.90
51253;DHT22;38936;47.808;19.936;2022-08-21T15:34:39;25.60;99.90
51253;DHT22;38936;47.808;19.936;2022-08-21T15:37:07;25.60;99.90
51253;DHT22;38936;47.808;19.936;2022-08-21T15:39:34;25.50;99.90
51253;DHT22;38936;47.808;19.936;2022-08-21T15:42:00;25.50;99.90
51253;DHT22;38936;47.808;19.936;2022-08-21T15:44:28;25.50;99.90
51253;DHT22;38936;47.808;19.936;2022-08-21T15:46:55;25.40;99.90
51253;DHT22;38936;47.808;19.936;2022-08-21T15:49:21;25.20;99.90
51253;DHT22;38936;47.808;19.936;2022-08-21T15:51:47;25.10;99.90
51253;DHT22;38936;47.808;19.936;2022-08-21T15:54:12;25.10;99.90
51253;DHT22;38936;47.808;19.936;2022-08-21T15:56:39;25.00;99.90
51253;DHT22;38936;47.808;19.936;2022-08-21T15:59:21;24.90;99.90
51253;DHT22;38936;47.808;19.936;2022-08-21T16:01:49;24.90;99.90
51253;DHT22;38936;47.808;19.936;2022-08-21T16:04:23;24.70;99.90
51253;DHT22;38936;47.808;19.936;2022-08-21T16:06:50;24.60;99.90
51253;DHT22;38936;47.808;19.936;2022-08-21T16:09:15;24.50;99.90
51253;DHT22;38936;47.808;19.936;2022-08-21T16:11:42;24.40;99.90
51253;DHT22;38936;47.808;19.936;2022-08-21T16:14:08;24.30;99.90
51253;DHT22;38936;47.808;19.936;2022-08-21T16:16:35;24.20;99.90
51253;DHT22;38936;47.808;19.936;2022-08-21T16:19:03;24.20;99.90
51253;DHT22;38936;47.808;19.936;2022-08-21T16:21:31;24.10;99.90
51253;DHT22;38936;47.808;19.936;2022-08-21T16:23:57;24.00;99.90
51253;DHT22;38936;47.808;19.936;2022-08-21T16:26:23;24.00;99.90
51253;DHT22;38936;47.808;19.936;2022-08-21T16:28:51;23.80;99.90
51253;DHT22;38936;47.808;19.936;2022-08-21T16:31:18;23.70;99.90
51253;DHT22;38936;47.808;19.936;2022-08-21T16:33:48;23.60;99.90
51253;DHT22;38936;47.808;19.936;2022-08-21T16:36:14;23.40;99.90
51253;DHT22;38936;47.808;19.936;2022-08-21T16:38:40;23.30;99.90
51253;DHT22;38936;47.808;19.936;2022-08-21T16:41:17;23.20;99.90
51253;DHT22;38936;47.808;19.936;2022-08-21T16:43:44;23.00;99.90
51253;DHT22;38936;47.808;19.936;2022-08-21T16:46:12;22.90;99.90
51253;DHT22;38936;47.808;19.936;2022-08-21T16:48:39;22.80;99.90
51253;DHT22;38936;47.808;19.936;2022-08-21T16:51:05;22.80;99.90
51253;DHT22;38936;47.808;19.936;2022-08-21T16:53:31;22.80;99.90
51253;DHT22;38936;47.808;19.936;2022-08-21T16:55:57;22.70;99.90